createdAt,value
2023-04-04T00:00:05.244Z,1011.46
2023-04-04T00:05:03.336Z,1011.6
2023-04-04T00:10:05.160Z,1011.66
2023-04-04T00:15:03.298Z,1011.64
2023-04-04T00:20:04.553Z,1011.66
2023-04-04T00:25:03.451Z,1011.73
2023-04-04T00:30:04.318Z,1011.75
2023-04-04T00:35:04.391Z,1011.65
2023-04-04T00:40:04.683Z,1011.7
2023-04-04T00:45:03.343Z,1011.78
2023-04-04T00:50:04.538Z,1011.81
2023-04-04T00:55:03.463Z,1011.91
2023-04-04T01:00:09.373Z,1011.91
2023-04-04T01:05:03.511Z,1011.86
2023-04-04T01:10:04.290Z,1011.91
2023-04-04T01:15:03.615Z,1011.85
2023-04-04T01:20:04.852Z,1011.78
2023-04-04T01:25:03.697Z,1011.83
2023-04-04T01:30:04.430Z,1011.95
2023-04-04T01:35:04.287Z,1011.97
2023-04-04T01:40:04.432Z,1012.09
2023-04-04T01:45:03.297Z,1012.08
2023-04-04T01:50:04.432Z,1012.09
2023-04-04T01:55:03.501Z,1012.09
2023-04-04T02:00:04.647Z,1012.12
2023-04-04T02:05:03.255Z,1012.1
2023-04-04T02:10:04.497Z,1012.07
2023-04-04T02:15:03.295Z,1012.01
2023-04-04T02:20:04.494Z,1012.08
2023-04-04T02:25:03.456Z,1011.99
2023-04-04T02:30:04.193Z,1012.06
2023-04-04T02:35:03.273Z,1012.03
2023-04-04T02:40:04.321Z,1012.0
2023-04-04T02:45:03.368Z,1012.02
2023-04-04T02:50:04.414Z,1012.05
2023-04-04T02:55:03.441Z,1011.97
2023-04-04T03:00:05.084Z,1011.91
2023-04-04T03:05:03.408Z,1011.9
2023-04-04T03:10:04.484Z,1011.93
2023-04-04T03:15:03.355Z,1012.02
2023-04-04T03:20:04.514Z,1012.02
2023-04-04T03:25:03.493Z,1012.12
2023-04-04T03:30:04.360Z,1012.1
2023-04-04T03:35:03.495Z,1012.21
2023-04-04T03:40:04.834Z,1012.26
2023-04-04T03:45:03.688Z,1012.23
2023-04-04T03:50:04.884Z,1012.2
2023-04-04T03:55:03.651Z,1012.23
2023-04-04T04:00:04.806Z,1012.28
2023-04-04T04:05:03.443Z,1012.32
2023-04-04T04:10:04.481Z,1012.31
2023-04-04T04:15:03.630Z,1012.31
2023-04-04T04:20:04.427Z,1012.25
2023-04-04T04:25:03.378Z,1012.25
2023-04-04T04:30:04.696Z,1012.21
2023-04-04T04:35:03.517Z,1012.15
2023-04-04T04:40:04.582Z,1012.22
2023-04-04T04:45:03.376Z,1012.25
2023-04-04T04:50:04.415Z,1012.21
2023-04-04T04:55:03.369Z,1012.16
2023-04-04T05:00:04.451Z,1012.13
2023-04-04T05:05:03.463Z,1012.18
2023-04-04T05:10:04.307Z,1012.12
2023-04-04T05:15:03.549Z,1012.04
2023-04-04T05:20:04.393Z,1012.02
2023-04-04T05:25:03.452Z,1011.97
2023-04-04T05:30:04.411Z,1011.91
2023-04-04T05:35:03.348Z,1011.91
2023-04-04T05:40:04.353Z,1011.93
2023-04-04T05:45:03.258Z,1011.88
2023-04-04T05:50:04.371Z,1011.79
2023-04-04T05:55:03.485Z,1011.8
2023-04-04T06:00:04.684Z,1011.82
2023-04-04T06:05:03.388Z,1011.94
2023-04-04T06:10:04.379Z,1011.92
2023-04-04T06:15:03.358Z,1011.96
2023-04-04T06:20:04.409Z,1011.89
2023-04-04T06:25:03.363Z,1011.81
2023-04-04T06:30:04.527Z,1011.71
2023-04-04T06:35:03.248Z,1011.67
2023-04-04T06:40:04.301Z,1011.62
2023-04-04T06:45:03.348Z,1011.55
2023-04-04T06:50:04.309Z,1011.63
2023-04-04T06:55:03.444Z,1011.51
2023-04-04T07:00:04.389Z,1011.51
2023-04-04T07:05:03.227Z,1011.48
2023-04-04T07:10:04.334Z,1011.51
2023-04-04T07:15:03.307Z,1011.32
2023-04-04T07:20:04.929Z,1011.23
2023-04-04T07:25:03.326Z,1011.14
2023-04-04T07:30:04.371Z,1011.1
2023-04-04T07:35:03.268Z,1011.12
2023-04-04T07:40:04.291Z,1011.11
2023-04-04T07:45:03.353Z,1011.06
2023-04-04T07:50:04.489Z,1011.06
2023-04-04T07:55:03.410Z,1011.09
2023-04-04T08:00:04.527Z,1011.18
2023-04-04T08:05:03.321Z,1011.2
2023-04-04T08:10:04.561Z,1011.27
2023-04-04T08:15:03.303Z,1011.27
2023-04-04T08:20:04.393Z,1011.26
2023-04-04T08:25:03.371Z,1011.27
2023-04-04T08:30:04.428Z,1011.25
2023-04-04T08:35:03.286Z,1011.19
2023-04-04T08:40:04.248Z,1011.19
2023-04-04T08:45:03.431Z,1011.25
2023-04-04T08:50:04.394Z,1011.27
2023-04-04T08:55:03.482Z,1011.31
2023-04-04T09:00:04.450Z,1011.42
2023-04-04T09:05:06.548Z,1011.58
2023-04-04T09:10:04.298Z,1011.61
2023-04-04T09:15:03.407Z,1011.66
2023-04-04T09:20:04.238Z,1011.66
2023-04-04T09:25:03.477Z,1011.69
2023-04-04T09:30:05.721Z,1011.73
2023-04-04T09:35:03.333Z,1011.79
2023-04-04T09:40:04.397Z,1011.98
2023-04-04T09:45:03.306Z,1012.11
2023-04-04T09:50:04.288Z,1012.15
2023-04-04T09:55:03.368Z,1012.18
2023-04-04T10:00:05.524Z,1012.23
2023-04-04T10:05:06.457Z,1012.23
2023-04-04T10:10:04.202Z,1012.33
2023-04-04T10:15:03.361Z,1012.42
2023-04-04T10:20:04.368Z,1012.48
2023-04-04T10:25:03.358Z,1012.6
2023-04-04T10:30:04.452Z,1012.7
2023-04-04T10:35:03.269Z,1012.8
2023-04-04T10:40:04.351Z,1012.82
2023-04-04T10:45:13.060Z,1012.87
2023-04-04T10:50:04.731Z,1013.0
2023-04-04T10:55:03.345Z,1013.07
2023-04-04T11:00:04.531Z,1013.17
2023-04-04T11:05:03.234Z,1013.23
2023-04-04T11:10:04.383Z,1013.27
2023-04-04T11:15:03.282Z,1013.23
2023-04-04T11:20:04.367Z,1013.32
2023-04-04T11:25:03.359Z,1013.39
2023-04-04T11:30:05.354Z,1013.44
2023-04-04T11:35:03.267Z,1013.5
2023-04-04T11:40:04.513Z,1013.54
2023-04-04T11:45:03.301Z,1013.56
2023-04-04T11:50:04.564Z,1013.61
2023-04-04T11:55:03.427Z,1013.65
2023-04-04T12:00:04.400Z,1013.61
2023-04-04T12:05:05.225Z,1013.63
2023-04-04T12:10:05.257Z,1013.63
2023-04-04T12:15:14.816Z,1013.67
2023-04-04T12:20:04.428Z,1013.7
2023-04-04T12:25:03.413Z,1013.7
2023-04-04T12:30:04.441Z,1013.75
2023-04-04T12:35:03.384Z,1013.78
2023-04-04T12:40:05.276Z,1013.74
2023-04-04T12:45:03.485Z,1013.71
2023-04-04T12:50:04.527Z,1013.74
2023-04-04T13:00:04.392Z,1013.72
2023-04-04T13:05:03.458Z,1013.82
2023-04-04T13:10:04.631Z,1013.84
2023-04-04T13:15:03.317Z,1013.89
2023-04-04T13:20:04.657Z,1013.92
2023-04-04T13:25:03.373Z,1013.84
2023-04-04T13:30:04.494Z,1013.81
2023-04-04T13:35:04.451Z,1013.81
2023-04-04T13:40:04.552Z,1013.75
2023-04-04T13:45:03.323Z,1013.67
2023-04-04T13:50:05.742Z,1013.62
2023-04-04T13:55:03.951Z,1013.58
2023-04-04T14:00:04.498Z,1013.53
2023-04-04T14:05:03.285Z,1013.5
2023-04-04T14:10:04.329Z,1013.45
2023-04-04T14:15:03.323Z,1013.32
2023-04-04T14:20:04.427Z,1013.33
2023-04-04T14:25:03.366Z,1013.31
2023-04-04T14:30:06.333Z,1013.26
2023-04-04T14:35:04.201Z,1013.17
2023-04-04T14:40:05.270Z,1013.12
2023-04-04T14:45:04.201Z,1013.02
2023-04-04T14:50:04.417Z,1012.95
2023-04-04T14:55:04.447Z,1012.85
2023-04-04T15:00:04.510Z,1012.81
2023-04-04T15:05:22.566Z,1012.75
2023-04-04T15:10:07.237Z,1012.63
2023-04-04T15:15:03.251Z,1012.48
2023-04-04T15:20:04.444Z,1012.39
2023-04-04T15:25:03.388Z,1012.27
2023-04-04T15:30:04.630Z,1012.21
2023-04-04T15:35:03.250Z,1012.18
2023-04-04T15:40:04.523Z,1012.14
2023-04-04T15:45:06.595Z,1012.09
2023-04-04T15:50:04.756Z,1011.98
2023-04-04T15:55:03.518Z,1011.88
2023-04-04T16:00:04.624Z,1011.74
2023-04-04T16:05:03.623Z,1011.65
2023-04-04T16:10:04.314Z,1011.61
2023-04-04T16:15:03.552Z,1011.49
2023-04-04T16:20:04.654Z,1011.4
2023-04-04T16:25:03.540Z,1011.32
2023-04-04T16:30:04.686Z,1011.19
2023-04-04T16:35:04.840Z,1011.08
2023-04-04T16:40:05.542Z,1011.02
2023-04-04T16:45:04.443Z,1010.88
2023-04-04T16:50:05.049Z,1010.82
2023-04-04T16:55:03.393Z,1010.63
2023-04-04T17:00:04.669Z,1010.6
2023-04-04T17:05:03.412Z,1010.63
2023-04-04T17:10:04.458Z,1010.51
2023-04-04T17:15:03.263Z,1010.51
2023-04-04T17:20:04.694Z,1010.49
2023-04-04T17:25:04.389Z,1010.35
2023-04-04T17:30:04.407Z,1010.38
2023-04-04T17:35:03.254Z,1010.36
2023-04-04T17:40:04.292Z,1010.4
2023-04-04T17:45:04.543Z,1010.49
2023-04-04T17:50:07.056Z,1010.38
2023-04-04T17:55:04.437Z,1010.15
2023-04-04T18:00:04.470Z,1009.95
2023-04-04T18:05:06.561Z,1009.87
2023-04-04T18:10:09.920Z,1009.99
2023-04-04T18:15:04.601Z,1010.01
2023-04-04T18:20:04.514Z,1010.08
2023-04-04T18:25:03.698Z,1010.41
2023-04-04T18:30:05.456Z,1010.57
2023-04-04T18:35:04.683Z,1010.6
2023-04-04T18:40:04.423Z,1010.91
2023-04-04T18:45:04.303Z,1010.81
2023-04-04T18:50:05.196Z,1010.61
2023-04-04T18:55:03.674Z,1010.75
2023-04-04T19:00:04.568Z,1010.7
2023-04-04T19:05:04.011Z,1010.63
2023-04-04T19:10:04.646Z,1010.57
2023-04-04T19:15:03.582Z,1010.8
2023-04-04T19:20:05.665Z,1011.19
2023-04-04T19:25:05.513Z,1011.1
2023-04-04T19:30:04.702Z,1011.72
2023-04-04T19:35:04.623Z,1011.95
2023-04-04T19:40:05.397Z,1011.86
2023-04-04T19:45:03.263Z,1011.55
2023-04-04T19:50:04.495Z,1011.23
2023-04-04T19:55:04.494Z,1011.04
2023-04-04T20:00:05.782Z,1011.04
2023-04-04T20:05:12.440Z,1011.12
2023-04-04T20:10:18.400Z,1011.19
2023-04-04T20:15:03.342Z,1011.19
2023-04-04T20:20:04.408Z,1011.08
2023-04-04T20:25:03.398Z,1011.01
2023-04-04T20:30:07.706Z,1011.05
2023-04-04T20:35:03.398Z,1011.03
2023-04-04T20:40:04.357Z,1011.09
2023-04-04T20:45:03.245Z,1011.34
2023-04-04T20:50:04.309Z,1011.77
2023-04-04T20:55:03.355Z,1011.71
2023-04-04T21:00:04.369Z,1011.77
2023-04-04T21:05:03.388Z,1011.55
2023-04-04T21:10:04.598Z,1011.39
2023-04-04T21:15:03.238Z,1011.34
2023-04-04T21:20:04.376Z,1011.23
2023-04-04T21:25:03.303Z,1011.08
2023-04-04T21:30:04.424Z,1011.12
2023-04-04T21:35:03.409Z,1011.04
2023-04-04T21:40:04.532Z,1010.98
2023-04-04T21:45:03.225Z,1010.94
2023-04-04T21:50:04.366Z,1010.92
2023-04-04T21:55:03.278Z,1010.88
2023-04-04T22:00:04.462Z,1010.72
2023-04-04T22:05:03.424Z,1010.67
2023-04-04T22:10:04.341Z,1010.64
2023-04-04T22:15:03.253Z,1010.57
2023-04-04T22:20:04.313Z,1010.55
2023-04-04T22:25:03.484Z,1010.55
2023-04-04T22:30:04.533Z,1010.53
2023-04-04T22:35:03.385Z,1010.53
2023-04-04T22:40:04.370Z,1010.57
2023-04-04T22:45:03.223Z,1010.67
2023-04-04T22:50:04.446Z,1010.66
2023-04-04T22:55:03.320Z,1010.69
2023-04-04T23:00:04.953Z,1010.76
2023-04-04T23:05:03.418Z,1011.02
2023-04-04T23:10:04.492Z,1010.98
2023-04-04T23:15:03.425Z,1011.01
2023-04-04T23:20:04.605Z,1010.97
2023-04-04T23:25:03.504Z,1010.92
2023-04-04T23:30:04.777Z,1010.89
2023-04-04T23:35:03.439Z,1011.02
2023-04-04T23:40:04.590Z,1011.17
2023-04-04T23:45:03.337Z,1011.26
2023-04-04T23:50:04.309Z,1011.2
2023-04-04T23:55:03.326Z,1011.25
